Time;durP1;ratioP1;P1;durP2;ratioP2;P2;SDS_P1;SDS_P2;PMS_P1;PMS_P2;Temp;Humidity;BMP_temperature;BMP_pressure;BME280_temperature;BME280_humidity;BME280_pressure;Samples;Min_cycle;Max_cycle;Signal;HPM_P1;HPM_P2
2022/05/31 00:00:19;;;;;;;18.32;12.00;;;;;;;17.02;83.66;100171.91;1727255;81;21781;-68
2022/05/31 00:02:46;;;;;;;12.47;10.32;;;;;;;17.07;83.66;100177.56;1723501;82;21051;-68
2022/05/31 00:05:12;;;;;;;13.48;9.28;;;;;;;17.12;83.61;100177.08;1723841;81;20944;-72
2022/05/31 00:07:40;;;;;;;14.47;9.50;;;;;;;17.16;83.57;100177.89;1723647;81;20991;-67
2022/05/31 00:10:09;;;;;;;12.88;10.13;;;;;;;17.23;83.39;100183.89;1692367;83;21008;-68
2022/05/31 00:12:35;;;;;;;15.30;11.45;;;;;;;17.27;83.20;100184.70;1692378;82;21814;-68
2022/05/31 00:15:03;;;;;;;12.75;11.40;;;;;;;17.27;83.03;100180.70;1691588;84;20975;-68
2022/05/31 00:17:30;;;;;;;12.93;11.45;;;;;;;17.21;82.89;100187.24;1691022;83;21032;-68
2022/05/31 00:19:57;;;;;;;12.75;10.90;;;;;;;17.15;82.87;100181.56;1691479;83;21110;-69
2022/05/31 00:22:25;;;;;;;15.32;11.30;;;;;;;17.10;82.89;100180.42;1695087;83;21650;-68
2022/05/31 00:24:52;;;;;;;14.30;10.72;;;;;;;17.07;82.96;100184.23;1692453;82;22521;-68
2022/05/31 00:27:21;;;;;;;13.00;10.88;;;;;;;17.05;83.03;100186.25;1691445;83;21106;-68
2022/05/31 00:29:47;;;;;;;12.23;10.75;;;;;;;17.05;83.14;100184.08;1677508;82;21008;-68
2022/05/31 00:32:22;;;;;;;15.32;13.15;;;;;;;17.08;83.17;100193.07;1702917;83;21107;-68
2022/05/31 00:34:50;;;;;;;17.57;14.23;;;;;;;17.09;83.24;100190.27;1696016;83;21007;-69
2022/05/31 00:37:18;;;;;;;17.55;14.53;;;;;;;17.12;83.44;100188.58;1692506;82;22451;-68
2022/05/31 00:39:46;;;;;;;17.20;14.05;;;;;;;17.13;83.59;100190.24;1690772;83;21054;-68
2022/05/31 00:42:17;;;;;;;19.40;16.62;;;;;;;17.16;83.67;100195.23;1711839;83;20984;-68
2022/05/31 00:44:44;;;;;;;19.73;15.90;;;;;;;17.19;83.78;100195.42;1691160;83;21222;-69
2022/05/31 00:47:27;;;;;;;19.32;16.05;;;;;;;17.22;83.98;100196.41;1688189;83;20982;-69
2022/05/31 00:50:06;;;;;;;18.95;16.95;;;;;;;17.26;84.07;100196.89;1691834;83;21728;-68
2022/05/31 00:52:36;;;;;;;20.77;17.10;;;;;;;17.27;84.16;100201.23;1718645;83;20992;-67
2022/05/31 00:55:23;;;;;;;20.72;16.27;;;;;;;17.28;84.32;100200.25;1695782;82;21060;-67
2022/05/31 00:58:03;;;;;;;18.90;16.90;;;;;;;17.28;84.41;100195.74;1696752;82;20992;-68
2022/05/31 01:00:30;;;;;;;17.67;15.75;;;;;;;17.29;84.46;100203.25;1696373;82;20964;-70
2022/05/31 01:02:56;;;;;;;17.23;15.20;;;;;;;17.28;84.44;100201.08;1691739;83;21831;-68
2022/05/31 01:05:24;;;;;;;16.75;15.10;;;;;;;17.26;84.36;100196.89;1651261;83;21059;-68
2022/05/31 01:07:50;;;;;;;19.20;15.48;;;;;;;17.24;84.31;100198.40;1696817;83;20976;-68
2022/05/31 01:10:17;;;;;;;17.60;15.72;;;;;;;17.23;84.28;100190.56;1700802;82;21684;-68
2022/05/31 01:13:04;;;;;;;17.45;15.63;;;;;;;17.21;84.34;100189.41;1692478;82;21424;-67
2022/05/31 01:15:44;;;;;;;18.17;15.85;;;;;;;17.21;84.33;100187.24;1661052;85;22573;-68
2022/05/31 01:18:32;;;;;;;17.05;15.15;;;;;;;17.22;84.35;100187.06;1536573;91;21116;-67
2022/05/31 01:21:19;;;;;;;16.80;15.08;;;;;;;17.21;84.36;100181.91;1550712;90;21460;-68
2022/05/31 01:24:12;;;;;;;17.42;15.25;;;;;;;17.20;84.33;100189.08;1630621;82;21008;-68
2022/05/31 01:26:48;;;;;;;16.97;15.25;;;;;;;17.19;84.25;100190.08;1698755;82;20980;-67
2022/05/31 01:29:25;;;;;;;19.37;15.35;;;;;;;17.16;84.22;100183.73;1698002;84;21821;-68
2022/05/31 01:32:01;;;;;;;17.87;14.80;;;;;;;17.13;84.22;100178.23;1703188;83;20956;-68
2022/05/31 01:34:53;;;;;;;15.83;14.05;;;;;;;17.12;84.20;100179.74;1696243;82;21015;-68
2022/05/31 01:37:25;;;;;;;19.57;15.20;;;;;;;17.12;84.22;100177.08;1686299;83;21527;-68
2022/05/31 01:39:55;;;;;;;16.15;14.35;;;;;;;17.12;84.25;100180.58;1679270;82;20967;-68
2022/05/31 01:42:37;;;;;;;15.80;14.20;;;;;;;17.14;84.29;100181.73;1673675;82;22590;-68
2022/05/31 01:45:14;;;;;;;16.62;14.43;;;;;;;17.13;84.30;100179.57;1696020;83;21428;-68
2022/05/31 01:47:41;;;;;;;17.67;14.58;;;;;;;17.14;84.30;100178.56;1694265;83;21067;-69
2022/05/31 01:50:12;;;;;;;18.52;14.93;;;;;;;17.14;84.30;100184.41;1688447;83;21527;-67
2022/05/31 01:52:39;;;;;;;17.37;15.30;;;;;;;17.12;84.32;100183.24;1688681;83;21065;-68
2022/05/31 01:55:06;;;;;;;16.60;14.18;;;;;;;17.11;84.33;100184.75;1696204;83;21834;-68
2022/05/31 01:57:33;;;;;;;16.90;15.10;;;;;;;17.07;84.38;100178.90;1757650;80;20957;-68
2022/05/31 02:00:09;;;;;;;16.27;14.58;;;;;;;17.08;84.45;100187.73;1758175;81;21413;-68
2022/05/31 02:02:51;;;;;;;15.75;14.05;;;;;;;17.07;84.48;100180.73;1754162;80;20968;-68
2022/05/31 02:05:15;;;;;;;16.52;14.58;;;;;;;17.05;84.52;100178.23;1719428;81;20961;-68
2022/05/31 02:07:54;;;;;;;16.57;14.83;;;;;;;17.06;84.52;100180.41;1760445;80;21419;-68
2022/05/31 02:10:21;;;;;;;19.52;14.68;;;;;;;17.04;84.52;100181.08;1754593;80;20952;-67
2022/05/31 02:12:49;;;;;;;18.25;14.15;;;;;;;17.02;84.46;100173.75;1754373;80;21058;-68
2022/05/31 02:15:32;;;;;;;17.33;13.80;;;;;;;16.98;84.43;100175.91;1752901;80;20995;-67
2022/05/31 02:18:17;;;;;;;16.40;14.15;;;;;;;16.95;84.40;100175.41;1719610;81;21086;-68
2022/05/31 02:21:02;;;;;;;16.62;13.93;;;;;;;16.93;84.42;100182.77;1716402;81;21993;-68
2022/05/31 02:23:28;;;;;;;17.80;14.58;;;;;;;16.93;84.44;100194.77;1719870;81;21384;-68
2022/05/31 02:25:55;;;;;;;16.10;14.38;;;;;;;16.95;84.41;100202.09;1725493;81;21375;-67
2022/05/31 02:28:23;;;;;;;16.90;14.40;;;;;;;16.97;84.41;100199.59;1695838;83;21020;-67
2022/05/31 02:30:50;;;;;;;18.48;13.88;;;;;;;17.01;84.44;100203.61;1719341;81;21004;-70
2022/05/31 02:33:17;;;;;;;15.80;13.30;;;;;;;17.03;84.48;100210.94;1755567;80;24244;-68
2022/05/31 02:35:44;;;;;;;17.00;14.30;;;;;;;17.03;84.41;100211.44;1756554;80;20987;-67
2022/05/31 02:38:11;;;;;;;16.77;14.58;;;;;;;17.03;84.30;100209.59;1755696;80;20960;-68
2022/05/31 02:40:39;;;;;;;15.68;13.62;;;;;;;17.06;84.29;100212.42;1717291;81;21018;-68
2022/05/31 02:43:07;;;;;;;15.40;13.53;;;;;;;17.08;84.36;100215.28;1716159;81;21440;-66
2022/05/31 02:45:34;;;;;;;14.58;13.00;;;;;;;17.09;84.38;100199.60;1705880;81;21848;-67
2022/05/31 02:48:02;;;;;;;16.20;13.78;;;;;;;17.08;84.36;100200.61;1750240;80;20993;-69
2022/05/31 02:50:29;;;;;;;15.28;12.88;;;;;;;17.08;84.32;100199.27;1716355;81;20969;-67
2022/05/31 02:52:57;;;;;;;15.43;13.80;;;;;;;17.09;84.25;100192.93;1758034;80;21091;-69
2022/05/31 02:55:24;;;;;;;16.25;14.07;;;;;;;17.11;84.13;100196.26;1731380;81;21001;-69
2022/05/31 02:58:09;;;;;;;15.65;13.88;;;;;;;17.14;84.11;100205.25;1709378;82;21853;-67
2022/05/31 03:00:53;;;;;;;;;;;;;;;17.17;84.11;100201.41;1613753;87;21019;-68
2022/05/31 03:03:38;;;;;;;15.55;13.40;;;;;;;17.20;84.17;100205.59;1698165;83;20168;-67
2022/05/31 03:06:23;;;;;;;14.83;13.30;;;;;;;17.18;84.21;100207.11;1699028;82;20980;-68
2022/05/31 03:09:04;;;;;;;17.00;13.70;;;;;;;17.19;84.23;100206.60;1729489;81;20966;-67
2022/05/31 03:11:53;;;;;;;15.95;13.45;;;;;;;17.18;84.21;100207.11;1702866;82;21813;-71
2022/05/31 03:14:35;;;;;;;14.85;13.32;;;;;;;17.20;84.19;100202.92;1727591;81;21538;-68
2022/05/31 03:17:21;;;;;;;15.20;13.60;;;;;;;17.23;84.17;100210.59;1732302;81;21003;-68
2022/05/31 03:19:52;;;;;;;15.00;13.38;;;;;;;17.27;84.09;100210.06;1726689;81;21007;-67
2022/05/31 03:22:24;;;;;;;14.87;13.38;;;;;;;17.33;84.13;100216.58;1698600;84;21027;-68
2022/05/31 03:24:58;;;;;;;14.87;12.75;;;;;;;17.37;84.11;100220.09;1680653;84;21897;-67
2022/05/31 03:27:25;;;;;;;14.63;12.63;;;;;;;17.44;84.10;100226.90;1704048;82;21040;-67
2022/05/31 03:29:53;;;;;;;16.30;13.32;;;;;;;17.49;84.10;100225.91;1701472;83;20965;-67
2022/05/31 03:32:20;;;;;;;15.75;12.85;;;;;;;17.54;84.10;100220.87;1736304;81;21480;-68
2022/05/31 03:34:46;;;;;;;14.15;12.63;;;;;;;17.60;84.10;100216.19;1698582;83;21458;-68
2022/05/31 03:37:14;;;;;;;15.20;12.63;;;;;;;17.65;84.05;100223.17;1696504;82;22535;-67
2022/05/31 03:39:41;;;;;;;15.60;12.90;;;;;;;17.70;83.97;100225.38;1705326;81;21404;-68
2022/05/31 03:42:08;;;;;;;15.05;12.43;;;;;;;17.76;83.87;100222.03;1699880;83;21043;-68
2022/05/31 03:44:36;;;;;;;13.45;11.95;;;;;;;17.80;83.72;100230.02;1698658;82;21456;-67
2022/05/31 03:47:10;;;;;;;12.55;11.25;;;;;;;17.82;83.37;100224.00;1672812;83;20956;-67
2022/05/31 03:49:45;;;;;;;12.78;10.78;;;;;;;17.85;83.17;100229.49;1724407;83;21817;-68
2022/05/31 03:52:14;;;;;;;12.55;10.35;;;;;;;17.88;82.99;100229.17;1733942;81;20924;-67
2022/05/31 03:54:43;;;;;;;14.10;11.20;;;;;;;17.90;82.74;100231.99;1700753;83;21001;-68
2022/05/31 03:57:17;;;;;;;12.03;10.20;;;;;;;17.91;82.52;100230.98;1731273;80;21054;-67
2022/05/31 03:59:45;;;;;;;13.70;10.98;;;;;;;17.94;82.33;100228.45;1737022;81;21010;-67
2022/05/31 04:02:13;;;;;;;14.05;10.53;;;;;;;17.97;82.12;100230.80;1730348;81;22567;-67
2022/05/31 04:04:40;;;;;;;12.40;9.83;;;;;;;18.02;82.03;100231.94;1728743;83;21002;-67
2022/05/31 04:07:07;;;;;;;12.35;10.08;;;;;;;18.10;81.89;100234.25;1734460;81;21020;-68
2022/05/31 04:09:37;;;;;;;11.73;9.53;;;;;;;18.14;81.63;100228.37;1696845;84;21057;-69
2022/05/31 04:12:06;;;;;;;12.82;10.05;;;;;;;18.19;81.35;100234.04;1732118;81;20995;-68
2022/05/31 04:14:41;;;;;;;13.95;10.03;;;;;;;18.22;81.04;100238.20;1670511;82;22464;-67
2022/05/31 04:17:07;;;;;;;13.18;9.63;;;;;;;18.24;80.72;100236.20;1736917;80;21509;-68
2022/05/31 04:19:35;;;;;;;11.48;9.78;;;;;;;18.25;80.51;100230.68;1738269;81;20955;-68
2022/05/31 04:22:02;;;;;;;11.73;10.08;;;;;;;18.30;80.36;100234.16;1702937;81;21012;-69
2022/05/31 04:24:29;;;;;;;11.00;9.60;;;;;;;18.36;80.22;100232.63;1697993;83;21454;-68
2022/05/31 04:27:16;;;;;;;11.48;9.50;;;;;;;18.39;80.05;100228.26;1702919;83;21871;-69
2022/05/31 04:30:01;;;;;;;12.98;9.03;;;;;;;18.40;79.74;100233.42;1696049;82;21497;-70
2022/05/31 04:32:46;;;;;;;12.55;9.05;;;;;;;18.43;79.27;100233.57;1696672;82;21472;-68
2022/05/31 04:35:15;;;;;;;10.43;8.80;;;;;;;18.46;79.09;100242.59;1740427;81;21056;-69
2022/05/31 04:37:41;;;;;;;12.55;9.38;;;;;;;18.52;78.98;100238.70;1697286;83;21469;-69
2022/05/31 04:40:12;;;;;;;12.85;9.35;;;;;;;18.59;78.94;100238.83;1732728;81;22403;-69
2022/05/31 04:42:57;;;;;;;13.75;9.10;;;;;;;18.64;78.64;100236.98;1738688;81;21457;-71
2022/05/31 04:45:28;;;;;;;11.35;8.78;;;;;;;18.71;78.52;100245.47;1728137;81;21058;-69
2022/05/31 04:47:56;;;;;;;11.10;9.55;;;;;;;18.75;78.13;100248.64;1699928;81;21102;-69
2022/05/31 04:50:23;;;;;;;11.45;9.13;;;;;;;18.77;77.88;100254.13;1711247;83;21000;-68
2022/05/31 04:52:50;;;;;;;10.58;9.05;;;;;;;18.82;77.92;100240.23;1736233;81;21889;-69
2022/05/31 04:55:18;;;;;;;10.35;9.00;;;;;;;18.88;77.71;100243.00;1695792;82;21063;-68
2022/05/31 04:57:46;;;;;;;9.98;8.73;;;;;;;18.91;77.32;100242.31;1734383;81;21002;-69
2022/05/31 05:00:14;;;;;;;13.30;9.53;;;;;;;18.90;77.22;100248.17;1736034;81;21045;-70
2022/05/31 05:02:51;;;;;;;11.30;8.35;;;;;;;18.94;77.01;100243.31;1733838;81;21011;-71
2022/05/31 05:05:18;;;;;;;10.25;7.70;;;;;;;18.98;76.80;100240.59;1740497;81;22194;-68
2022/05/31 05:07:47;;;;;;;11.15;8.08;;;;;;;18.99;76.09;100247.61;1734652;81;21111;-69
2022/05/31 05:10:14;;;;;;;11.50;7.90;;;;;;;18.96;74.94;100251.99;1736373;81;21039;-68
2022/05/31 05:12:59;;;;;;;10.45;7.37;;;;;;;18.93;75.07;100255.03;1733504;81;21155;-70
2022/05/31 05:15:46;;;;;;;8.88;7.50;;;;;;;18.96;75.14;100254.16;1729072;81;21532;-70
2022/05/31 05:18:13;;;;;;;13.45;7.65;;;;;;;19.03;75.05;100255.62;1732570;81;21820;-72
2022/05/31 05:20:42;;;;;;;10.60;6.90;;;;;;;19.07;74.65;100253.73;1729486;81;21489;-68
2022/05/31 05:23:09;;;;;;;9.60;7.12;;;;;;;19.09;73.75;100258.91;1700010;83;21024;-69
2022/05/31 05:25:36;;;;;;;9.80;6.80;;;;;;;19.10;73.60;100261.91;1734592;81;21348;-70
2022/05/31 05:30:38;;;;;;;10.65;7.78;;;;;;;19.15;73.57;100256.86;1730267;81;21059;-69
2022/05/31 05:30:41;;;;;;;;;;;;;;;19.21;73.02;100262.84;1734099;81;21810;-68
2022/05/31 05:33:10;;;;;;;11.48;9.30;;;;;;;19.25;72.77;100256.61;1723578;81;20470;-70
2022/05/31 05:35:38;;;;;;;11.25;7.80;;;;;;;19.27;72.15;100266.63;1734195;81;21035;-71
2022/05/31 05:38:09;;;;;;;8.90;7.90;;;;;;;19.27;71.98;100275.49;1722715;81;21450;-69
2022/05/31 05:40:39;;;;;;;9.13;6.87;;;;;;;19.34;72.17;100272.42;1735580;81;22118;-71
2022/05/31 05:43:08;;;;;;;10.15;6.55;;;;;;;19.43;72.14;100269.16;1738975;81;22155;-70
2022/05/31 05:45:39;;;;;;;11.00;6.22;;;;;;;19.56;72.18;100260.02;1726913;81;21007;-75
2022/05/31 05:48:07;;;;;;;8.93;6.90;;;;;;;19.69;71.51;100267.45;1693613;81;21600;-69
2022/05/31 05:50:36;;;;;;;13.55;8.98;;;;;;;19.78;71.42;100262.80;1697175;83;21055;-69
2022/05/31 05:53:08;;;;;;;11.45;8.30;;;;;;;19.87;71.19;100263.05;1729586;81;21067;-70
2022/05/31 05:55:44;;;;;;;10.75;6.58;;;;;;;19.98;71.22;100260.75;1696506;82;21642;-72
2022/05/31 05:58:29;;;;;;;10.43;7.37;;;;;;;20.12;70.99;100266.28;1718110;81;21015;-69
2022/05/31 06:01:36;;;;;;;9.08;5.83;;;;;;;20.20;70.33;100267.52;1724948;81;21023;-69
2022/05/31 06:04:18;;;;;;;9.20;6.30;;;;;;;20.26;69.74;100262.73;1718169;81;21050;-68
2022/05/31 06:06:45;;;;;;;10.88;5.50;;;;;;;20.32;69.33;100268.70;1679457;83;21086;-68
2022/05/31 06:09:16;;;;;;;9.13;5.45;;;;;;;20.42;69.32;100270.58;1668474;83;21980;-68
2022/05/31 06:11:51;;;;;;;9.80;5.92;;;;;;;20.54;69.00;100270.95;1720927;81;21050;-70
2022/05/31 06:14:28;;;;;;;8.00;5.30;;;;;;;20.62;68.52;100267.33;1684269;83;21472;-68
2022/05/31 06:17:00;;;;;;;10.88;5.05;;;;;;;20.70;68.49;100273.41;1719778;81;21218;-70
2022/05/31 06:19:36;;;;;;;9.78;5.17;;;;;;;20.85;68.45;100278.23;1724792;81;21530;-69
2022/05/31 06:22:06;;;;;;;8.25;5.35;;;;;;;20.93;67.09;100280.45;1669968;84;21825;-67
2022/05/31 06:24:40;;;;;;;11.15;4.92;;;;;;;21.04;67.23;100279.97;1671233;83;22210;-68
2022/05/31 06:27:11;;;;;;;8.30;5.05;;;;;;;21.13;66.54;100278.30;1692438;83;21113;-68
2022/05/31 06:29:38;;;;;;;6.67;4.47;;;;;;;21.26;66.61;100272.23;1694764;83;21008;-69
2022/05/31 06:32:06;;;;;;;8.33;4.37;;;;;;;21.43;66.45;100270.11;1691512;83;21080;-69
2022/05/31 06:34:37;;;;;;;6.42;4.15;;;;;;;21.52;64.75;100271.63;1727929;81;22885;-71
2022/05/31 06:37:08;;;;;;;6.87;4.50;;;;;;;21.55;63.85;100279.29;1707112;81;20900;-71
2022/05/31 06:39:40;;;;;;;8.73;4.37;;;;;;;21.61;64.23;100271.77;1670662;84;21095;-69
2022/05/31 06:42:10;;;;;;;7.08;3.83;;;;;;;21.74;64.55;100271.56;1683399;83;22016;-74
2022/05/31 06:44:52;;;;;;;5.05;3.42;;;;;;;21.82;63.26;100270.90;1673745;83;21058;-76
2022/05/31 06:47:31;;;;;;;8.45;3.80;;;;;;;21.89;61.98;100269.58;1666745;83;22223;-74
2022/05/31 06:50:12;;;;;;;7.45;3.90;;;;;;;21.92;61.98;100271.37;1608885;83;21064;-75
2022/05/31 06:58:34;;;;;;;6.33;3.47;;;;;;;22.14;61.16;100277.52;1709640;82;21035;-74
2022/05/31 07:01:04;;;;;;;7.25;3.50;;;;;;;22.21;61.14;100278.39;1698076;83;22609;-73
2022/05/31 07:03:33;;;;;;;8.15;3.67;;;;;;;22.28;60.82;100279.22;1693571;83;21397;-73
2022/05/31 07:06:00;;;;;;;5.97;3.60;;;;;;;22.35;60.75;100278.43;1692248;82;21038;-72
2022/05/31 07:08:29;;;;;;;5.92;3.27;;;;;;;22.41;60.64;100283.85;1717085;83;21031;-73
2022/05/31 07:11:01;;;;;;;6.85;3.42;;;;;;;22.49;60.08;100278.81;1717215;83;21091;-73
2022/05/31 07:13:46;;;;;;;7.30;3.00;;;;;;;22.50;59.08;100276.44;1719811;83;21850;-74
2022/05/31 07:16:29;;;;;;;8.58;3.47;;;;;;;22.44;59.17;100279.41;1697680;83;21019;-74
2022/05/31 07:19:08;;;;;;;5.87;3.00;;;;;;;22.48;59.41;100281.99;1680060;83;21052;-70
2022/05/31 07:21:40;;;;;;;6.25;3.30;;;;;;;22.56;59.70;100281.81;1713568;82;21032;-69
2022/05/31 07:24:07;;;;;;;4.50;2.70;;;;;;;22.66;59.12;100281.44;1712043;82;21058;-69
2022/05/31 07:26:34;;;;;;;7.70;3.15;;;;;;;22.73;59.29;100280.95;1660603;84;22552;-71
2022/05/31 07:29:01;;;;;;;5.22;3.08;;;;;;;22.80;57.74;100279.11;1700420;82;21042;-71
2022/05/31 07:31:29;;;;;;;6.03;2.92;;;;;;;22.79;57.80;100279.31;1672626;84;21049;-70
2022/05/31 07:34:00;;;;;;;5.58;3.12;;;;;;;22.81;58.04;100278.07;1714112;82;21113;-68
2022/05/31 07:36:27;;;;;;;6.17;3.05;;;;;;;22.88;57.40;100282.69;1699515;82;21077;-69
2022/05/31 07:39:16;;;;;;;7.33;3.12;;;;;;;22.88;57.23;100279.47;1691733;84;21641;-69
2022/05/31 07:41:43;;;;;;;6.17;3.20;;;;;;;22.95;57.59;100280.81;1694668;82;21051;-71
2022/05/31 07:44:11;;;;;;;6.30;2.90;;;;;;;23.07;57.80;100281.37;1682621;84;21415;-70
2022/05/31 07:46:38;;;;;;;5.62;2.98;;;;;;;23.22;57.51;100270.90;1666186;83;21020;-71
2022/05/31 07:49:05;;;;;;;8.35;3.33;;;;;;;23.33;57.54;100285.92;1715730;83;21031;-70
2022/05/31 07:51:42;;;;;;;6.22;3.15;;;;;;;23.45;56.91;100285.30;1707758;82;21055;-73
2022/05/31 07:54:16;;;;;;;7.25;3.35;;;;;;;23.51;56.36;100285.30;1677684;84;21040;-74
2022/05/31 07:57:05;;;;;;;8.65;3.60;;;;;;;23.51;56.44;100281.78;1694011;82;21663;-70
2022/05/31 07:59:49;;;;;;;5.05;3.40;;;;;;;23.49;56.61;100279.30;1664915;85;21059;-70
2022/05/31 08:02:30;;;;;;;7.60;3.22;;;;;;;23.57;56.61;100279.61;1670236;83;21069;-69
2022/05/31 08:04:57;;;;;;;9.58;4.20;;;;;;;23.55;56.12;100280.34;1692980;84;21862;-69
2022/05/31 08:07:24;;;;;;;5.85;3.80;;;;;;;23.56;57.30;100280.66;1692926;83;21494;-71
2022/05/31 08:09:52;;;;;;;9.08;3.30;;;;;;;23.70;57.61;100280.44;1662894;86;21036;-69
2022/05/31 08:12:18;;;;;;;7.00;3.22;;;;;;;23.88;57.01;100280.31;1690149;83;21048;-68
2022/05/31 08:14:47;;;;;;;9.33;3.80;;;;;;;23.97;56.91;100278.53;1637389;86;21085;-68
2022/05/31 08:17:14;;;;;;;5.65;3.72;;;;;;;24.08;56.83;100273.52;1645139;84;23332;-69
2022/05/31 08:19:41;;;;;;;8.58;3.60;;;;;;;24.20;56.68;100279.38;1715556;83;21371;-68
2022/05/31 08:22:07;;;;;;;7.40;3.45;;;;;;;24.35;56.47;100282.39;1699131;84;21044;-67
2022/05/31 08:24:35;;;;;;;7.50;3.40;;;;;;;24.47;55.79;100286.06;1706751;83;21059;-68
2022/05/31 08:27:03;;;;;;;8.25;3.77;;;;;;;24.51;55.38;100289.48;1687734;82;21068;-70
2022/05/31 08:29:30;;;;;;;8.75;3.45;;;;;;;24.56;54.83;100276.67;1720577;82;21958;-69
2022/05/31 08:31:58;;;;;;;5.97;2.95;;;;;;;24.50;54.35;100278.35;1706921;82;21012;-69
2022/05/31 08:34:27;;;;;;;6.33;3.12;;;;;;;24.49;54.08;100281.27;1742909;81;21004;-70
2022/05/31 08:36:54;;;;;;;5.80;3.00;;;;;;;24.49;53.93;100277.22;1739981;81;21082;-72
2022/05/31 08:39:20;;;;;;;7.40;3.30;;;;;;;24.56;54.51;100276.67;1756782;81;21082;-67
2022/05/31 08:41:50;;;;;;;6.58;3.10;;;;;;;24.77;54.41;100278.22;1700819;83;21815;-68
2022/05/31 08:44:34;;;;;;;6.83;3.30;;;;;;;24.92;54.08;100284.69;1684196;83;21052;-67
2022/05/31 08:47:16;;;;;;;7.40;3.45;;;;;;;25.07;53.35;100285.22;1685481;82;21038;-69
2022/05/31 08:53:28;;;;;;;8.50;3.25;;;;;;;25.16;52.66;100286.61;1708786;82;21497;-70
2022/05/31 08:58:56;;;;;;;5.70;3.40;;;;;;;25.46;52.51;100281.91;1701808;82;20964;-72
2022/05/31 09:01:31;;;;;;;5.35;3.33;;;;;;;25.56;52.78;100280.87;1678378;84;21035;-69
2022/05/31 09:04:19;;;;;;;8.45;3.10;;;;;;;25.67;52.74;100279.65;1728271;81;21511;-70
2022/05/31 09:06:53;;;;;;;7.92;3.33;;;;;;;25.80;52.32;100276.53;1718933;83;21090;-70
2022/05/31 09:09:27;;;;;;;6.17;3.70;;;;;;;25.82;51.26;100278.48;1730829;81;22183;-67
2022/05/31 09:12:23;;;;;;;5.67;3.42;;;;;;;25.82;51.54;100279.84;1728138;81;21061;-71
2022/05/31 09:15:04;;;;;;;6.67;3.27;;;;;;;25.87;51.12;100283.54;1727195;82;21055;-68
2022/05/31 09:17:49;;;;;;;4.50;3.15;;;;;;;25.90;50.52;100279.55;1717016;81;21104;-71
2022/05/31 09:20:19;;;;;;;;;;;;;;;25.95;50.86;100276.98;1742901;81;21032;-70
2022/05/31 09:22:47;;;;;;;7.83;3.20;;;;;;;25.98;50.59;100279.26;1729950;82;22516;-70
2022/05/31 09:25:14;;;;;;;7.08;3.50;;;;;;;26.04;50.78;100280.22;1683717;85;21057;-70
2022/05/31 09:27:47;;;;;;;9.30;3.33;;;;;;;26.05;50.45;100282.70;1683574;83;21059;-72
2022/05/31 09:30:32;;;;;;;5.78;3.10;;;;;;;26.06;50.78;100283.03;1657537;85;21155;-72
2022/05/31 09:33:06;;;;;;;;;;;;;;;26.15;50.00;100288.44;1679467;83;21035;-70
2022/05/31 09:35:57;;;;;;;10.55;3.58;;;;;;;26.18;50.12;100286.62;1580485;88;22581;-72
2022/05/31 09:38:38;;;;;;;7.05;3.25;;;;;;;26.15;49.69;100284.37;1679230;83;21075;-71
2022/05/31 09:41:25;;;;;;;6.00;3.42;;;;;;;26.24;50.30;100289.77;1692526;83;22154;-71
2022/05/31 09:44:36;;;;;;;4.35;2.95;;;;;;;26.30;49.21;100288.57;1662984;84;20999;-69
2022/05/31 09:47:19;;;;;;;6.85;3.10;;;;;;;26.20;48.61;100290.45;1703652;84;21078;-72
2022/05/31 09:49:49;;;;;;;6.03;2.72;;;;;;;26.15;49.25;100285.73;1703309;81;21848;-72
2022/05/31 09:52:37;;;;;;;6.45;3.30;;;;;;;26.26;49.58;100289.56;1719386;82;20979;-71
2022/05/31 09:58:29;;;;;;;7.70;3.40;;;;;;;26.47;49.73;100286.41;1703159;83;21051;-74
2022/05/31 10:01:28;;;;;;;8.05;3.25;;;;;;;26.56;48.52;100288.27;1699371;82;21096;-73
2022/05/31 10:04:13;;;;;;;5.75;2.83;;;;;;;26.70;48.81;100288.91;1657791;86;21842;-74
2022/05/31 10:07:04;;;;;;;7.00;3.00;;;;;;;26.93;47.88;100287.66;1668866;82;21068;-72
2022/05/31 10:09:37;;;;;;;5.10;3.00;;;;;;;27.18;47.23;100289.39;1710554;82;21080;-72
2022/05/31 10:12:14;;;;;;;6.33;3.17;;;;;;;27.31;46.71;100291.37;1674409;84;21000;-71
2022/05/31 10:14:46;;;;;;;6.17;3.25;;;;;;;27.30;45.66;100294.30;1693537;83;20948;-71
2022/05/31 10:17:35;;;;;;;6.72;3.22;;;;;;;27.15;45.64;100287.97;1661825;86;21824;-71
2022/05/31 10:20:19;;;;;;;7.62;3.12;;;;;;;27.05;46.06;100295.85;1698390;81;20979;-72
2022/05/31 10:23:01;;;;;;;6.25;3.15;;;;;;;27.02;46.08;100292.20;1712870;83;21097;-71
2022/05/31 10:25:57;;;;;;;8.80;3.05;;;;;;;26.99;46.17;100296.73;1562054;90;21075;-71
2022/05/31 10:28:37;;;;;;;7.60;2.80;;;;;;;26.95;46.82;100290.13;1598506;88;20950;-70
2022/05/31 10:31:21;;;;;;;7.50;3.27;;;;;;;26.97;46.64;100292.91;1637771;84;22049;-71
2022/05/31 10:33:52;;;;;;;7.13;3.13;;;;;;;26.88;46.09;100289.39;1686852;83;21774;-72
2022/05/31 10:36:20;;;;;;;7.17;3.10;;;;;;;26.84;46.81;100294.46;1696585;83;21010;-71
2022/05/31 10:38:48;;;;;;;6.78;3.02;;;;;;;26.83;46.94;100292.81;1694597;82;21068;-72
2022/05/31 10:41:29;;;;;;;6.47;2.90;;;;;;;26.82;47.32;100287.89;1690090;82;20980;-71
2022/05/31 10:44:08;;;;;;;5.30;3.30;;;;;;;26.91;48.07;100295.17;1697999;82;21941;-71
2022/05/31 10:46:36;;;;;;;8.43;3.17;;;;;;;26.96;48.70;100294.49;1695659;83;21440;-71
2022/05/31 10:49:19;;;;;;;6.35;3.33;;;;;;;26.93;48.39;100290.90;1705242;83;20965;-69
2022/05/31 10:52:20;;;;;;;18.05;4.30;;;;;;;27.01;48.46;100291.90;1695691;84;21062;-73
2022/05/31 10:54:58;;;;;;;7.08;3.40;;;;;;;27.20;48.85;100292.16;1666765;85;21078;-71
2022/05/31 10:58:09;;;;;;;4.67;3.10;;;;;;;27.39;48.60;100294.25;1667120;84;21839;-72
2022/05/31 11:00:52;;;;;;;8.05;3.25;;;;;;;27.52;47.87;100297.29;1685928;82;21047;-72
2022/05/31 11:03:55;;;;;;;6.85;3.30;;;;;;;27.48;47.92;100299.62;1732344;81;21097;-71
2022/05/31 11:06:49;;;;;;;8.20;3.40;;;;;;;27.51;48.37;100295.64;1705617;83;21096;-71
2022/05/31 11:13:04;;;;;;;5.90;3.45;;;;;;;27.71;48.05;100298.87;1727337;82;22793;-71
2022/05/31 11:15:39;;;;;;;4.92;3.05;;;;;;;28.07;47.12;100290.14;1681150;84;21055;-71
2022/05/31 11:18:45;;;;;;;9.20;3.55;;;;;;;28.18;46.43;100286.07;1693110;82;21156;-74
2022/05/31 11:21:17;;;;;;;6.80;2.98;;;;;;;28.09;46.51;100283.96;1699311;82;21024;-72
2022/05/31 11:24:01;;;;;;;5.50;3.07;;;;;;;28.09;47.00;100297.54;1679749;84;21068;-75
2022/05/31 11:26:42;;;;;;;6.85;3.47;;;;;;;28.12;47.23;100295.69;1657141;84;21825;-71
2022/05/31 11:29:20;;;;;;;6.90;3.12;;;;;;;28.15;46.72;100291.95;1663489;82;21033;-72
2022/05/31 11:32:20;;;;;;;8.05;3.27;;;;;;;27.93;46.38;100296.37;1691919;83;21131;-73
2022/05/31 11:35:00;;;;;;;8.68;3.37;;;;;;;27.75;47.21;100305.45;1675207;84;21070;-73
2022/05/31 11:37:43;;;;;;;8.13;3.55;;;;;;;27.61;47.71;100310.27;1694788;84;21181;-71
2022/05/31 11:40:35;;;;;;;9.93;3.70;;;;;;;27.53;47.95;100305.72;1669065;84;21933;-71
2022/05/31 11:43:59;;;;;;;4.83;3.12;;;;;;;27.40;47.53;100308.11;1704781;83;21106;-70
2022/05/31 11:46:47;;;;;;;8.48;3.47;;;;;;;27.37;48.03;100307.22;1668964;84;21098;-71
2022/05/31 11:49:48;;;;;;;6.15;3.27;;;;;;;27.42;47.79;100305.19;1688948;82;21043;-72
2022/05/31 11:52:42;;;;;;;5.15;3.25;;;;;;;27.43;48.51;100307.66;1690122;82;21557;-71
2022/05/31 11:55:25;;;;;;;7.65;3.37;;;;;;;27.71;48.43;100298.87;1690725;84;21857;-73
2022/05/31 11:58:24;;;;;;;7.42;3.35;;;;;;;28.04;47.28;100296.05;1693486;84;21099;-70
2022/05/31 12:01:24;;;;;;;7.17;3.40;;;;;;;28.31;46.93;100290.43;1664248;84;21043;-71
2022/05/31 12:04:10;;;;;;;8.48;3.60;;;;;;;28.58;46.73;100292.59;1690208;84;21040;-69
2022/05/31 12:06:45;;;;;;;8.05;3.60;;;;;;;28.87;46.17;100295.60;1686575;84;21558;-69
2022/05/31 12:09:45;;;;;;;11.65;3.65;;;;;;;29.06;45.18;100298.42;1667952;84;21912;-70
2022/05/31 12:12:21;;;;;;;7.42;4.12;;;;;;;29.00;44.97;100308.09;1662674;84;21019;-74
2022/05/31 12:14:53;;;;;;;8.10;4.62;;;;;;;28.73;45.53;100301.84;1650354;85;21068;-72